Close

Questo sito utlizza cookie. Può leggere come li usiamo nella nostra Privacy Policy.

Ronchi Tower
Ronchi Tower

From Facebook

METAR & TAF

2021/12/01 08:50 LIPQ 010850Z AUTO VRB02KT 9999 OVC051/// 03/02 Q1014
2021/12/01 06:21 TAF LIPQ 010500Z 0106/0206 VRB05KT CAVOK TEMPO 0118/0206 4000 RA
2021/12/01 08:50 LIPZ 010850Z 03005KT CAVOK 04/M02 Q1014 NOSIG
2021/12/01 06:21 TAF LIPZ 010500Z 0106/0212 VRB05KT CAVOK TEMPO 0118/0212 3000 RA
2021/12/01 08:50 LIPH 010850Z 36003KT CAVOK 04/M01 Q1014
2021/12/01 06:21 TAF LIPH 010500Z 0106/0206 VRB05KT CAVOK TEMPO 0118/0206 4000 RA
2021/12/01 08:50 LIRF 010850Z 23012KT 9999 FEW025 SCT035 OVC052 14/08 Q1017 NOSIG
2021/12/01 06:26 TAF LIRF 010500Z 0106/0212 15012KT 9999 SCT040 BECMG 0110/0112 24016KT TEMPO 0112/0118 24016G26KT TEMPO 0116/0202 SHRA TEMPO 0202/0212 TSRA
2021/12/01 08:50 LIML 010850Z VRB02KT CAVOK 05/M01 Q1012 NOSIG
2021/12/01 06:21 TAF LIML 010500Z 0106/0206 VRB05KT CAVOK
2021/12/01 09:20 EDDM 010920Z 24022KT 9999 FEW020 07/02 Q1005 NOSIG
2021/12/01 06:27 TAF EDDM 010500Z 0106/0212 25015G25KT 9999 SCT035 PROB40 TEMPO 0117/0120 22020G35KT BECMG 0122/0124 23012KT
2021/12/01 09:20 EGSS 010920Z AUTO 28012G23KT 250V310 9999 SCT019 08/04 Q0995
2021/12/01 08:20 TAF AMD EGSS 010816Z 0108/0212 27012KT 9999 SCT020 TEMPO 0108/0113 29018G28KT BECMG 0112/0115 33010KT TEMPO 0112/0120 BKN014 TEMPO 0112/0117 6000 SHRA PROB30 TEMPO 0119/0211 34015G25KT
2021/12/01 09:20 EDDF 010920Z 21018KT 9999 FEW010 BKN016 07/04 Q0999 TEMPO 20020G35KT
2021/12/01 06:27 TAF TAF EDDF 010500Z 0106/0212 20015G25KT 9999 BKN020 TEMPO 0106/0108 BKN014 TEMPO 0106/0115 22020G35KT TEMPO 0109/0112 RA PROB30 TEMPO 0114/0117 SHRA BKN020TCU BECMG 0118/0121 23013KT PROB30 TEMPO 0122/0209 4000 SHRA BKN014TCU BECMG 0200/0203 24008KT

FlightRadar24

Radar Meteo

Traffic data

Agosto 2018

Passeggeri: 63892-12,9% (rank: 23)
Nazionali 34490 -19,8%
Internazionali 29193 -3,0%

Movimenti: 1307+11,7% (rank: 24)
Tot commerciale 556 -7,2%
Aviazione generale 751 +31,5%

Cargo (tons): 20,6+62,5% (rank: 21)

Gennaio - Agosto 2018

Passeggeri: 507438-3,5% (rank: 23)
Nazionali 322655 -4,9%
Internazionali 182927 -0,7%

Movimenti: 10366-4,25 (rank: 22)
Tot commerciale 5328 -11,0%
Aviazione generale 5038 +4,2%

Cargo (tons): 299,2+61,9% (rank: 20)

Photo

Gulfstream Aerospace G550
Gulfstream Aerospace G550
Distinct views: 14
Reims F152
Reims F152
Distinct views: 83
Gulfstream Aerospace G550
Gulfstream Aerospace G550
Distinct views: 242
Airbus A319
Airbus A319
Total views: 4544